sensor_id;sensor_type;location;lat;lon;timestamp;temperature;humidity
68480;DHT22;55469;48.934;12.050;2022-08-11T00:01:17;24.70;38.40
68480;DHT22;55469;48.934;12.050;2022-08-11T00:03:51;24.60;38.30
68480;DHT22;55469;48.934;12.050;2022-08-11T00:06:36;24.60;38.40
68480;DHT22;55469;48.934;12.050;2022-08-11T00:09:07;24.60;38.40
68480;DHT22;55469;48.934;12.050;2022-08-11T00:11:43;24.60;38.40
68480;DHT22;55469;48.934;12.050;2022-08-11T00:14:20;24.60;38.30
68480;DHT22;55469;48.934;12.050;2022-08-11T00:19:28;24.60;38.40
68480;DHT22;55469;48.934;12.050;2022-08-11T00:21:57;24.60;38.50
68480;DHT22;55469;48.934;12.050;2022-08-11T00:24:24;24.60;38.40
68480;DHT22;55469;48.934;12.050;2022-08-11T00:26:57;24.60;38.50
68480;DHT22;55469;48.934;12.050;2022-08-11T00:29:22;24.60;38.50
68480;DHT22;55469;48.934;12.050;2022-08-11T00:31:52;24.60;38.50
68480;DHT22;55469;48.934;12.050;2022-08-11T00:34:28;24.60;38.60
68480;DHT22;55469;48.934;12.050;2022-08-11T00:37:00;24.60;38.60
68480;DHT22;55469;48.934;12.050;2022-08-11T00:39:31;24.60;38.60
68480;DHT22;55469;48.934;12.050;2022-08-11T00:42:26;24.60;38.60
68480;DHT22;55469;48.934;12.050;2022-08-11T00:45:13;24.60;38.60
68480;DHT22;55469;48.934;12.050;2022-08-11T00:54:26;24.60;39.70
68480;DHT22;55469;48.934;12.050;2022-08-11T01:00:18;24.50;38.60
68480;DHT22;55469;48.934;12.050;2022-08-11T01:03:09;24.50;38.70
68480;DHT22;55469;48.934;12.050;2022-08-11T01:06:05;24.50;38.60
68480;DHT22;55469;48.934;12.050;2022-08-11T01:11:49;24.50;38.70
68480;DHT22;55469;48.934;12.050;2022-08-11T01:18:21;24.50;38.70
68480;DHT22;55469;48.934;12.050;2022-08-11T01:33:38;24.50;38.90
68480;DHT22;55469;48.934;12.050;2022-08-11T01:36:49;24.50;39.00
68480;DHT22;55469;48.934;12.050;2022-08-11T01:46:00;24.40;39.00
68480;DHT22;55469;48.934;12.050;2022-08-11T01:57:49;24.40;39.20
68480;DHT22;55469;48.934;12.050;2022-08-11T02:00:20;24.40;39.20
68480;DHT22;55469;48.934;12.050;2022-08-11T02:03:16;24.40;39.20
68480;DHT22;55469;48.934;12.050;2022-08-11T02:06:12;24.40;39.20
68480;DHT22;55469;48.934;12.050;2022-08-11T02:15:13;24.40;39.30
68480;DHT22;55469;48.934;12.050;2022-08-11T02:20:36;24.40;39.30
68480;DHT22;55469;48.934;12.050;2022-08-11T02:23:31;24.40;39.40
68480;DHT22;55469;48.934;12.050;2022-08-11T02:26:17;24.40;39.40
68480;DHT22;55469;48.934;12.050;2022-08-11T02:37:24;24.30;39.30
68480;DHT22;55469;48.934;12.050;2022-08-11T02:42:23;24.30;39.30
68480;DHT22;55469;48.934;12.050;2022-08-11T02:45:36;24.30;39.30
68480;DHT22;55469;48.934;12.050;2022-08-11T02:57:21;24.30;39.40
68480;DHT22;55469;48.934;12.050;2022-08-11T03:00:04;24.30;39.40
68480;DHT22;55469;48.934;12.050;2022-08-11T03:17:49;24.20;39.30
68480;DHT22;55469;48.934;12.050;2022-08-11T03:24:14;24.20;39.30
68480;DHT22;55469;48.934;12.050;2022-08-11T03:27:23;24.20;39.30
68480;DHT22;55469;48.934;12.050;2022-08-11T03:30:06;24.20;39.30
68480;DHT22;55469;48.934;12.050;2022-08-11T03:32:45;24.20;39.30
68480;DHT22;55469;48.934;12.050;2022-08-11T03:36:12;24.20;39.30
68480;DHT22;55469;48.934;12.050;2022-08-11T03:38:58;24.20;39.30
68480;DHT22;55469;48.934;12.050;2022-08-11T03:56:59;24.10;39.30
68480;DHT22;55469;48.934;12.050;2022-08-11T04:00:18;24.20;39.30
68480;DHT22;55469;48.934;12.050;2022-08-11T04:02:55;24.10;39.30
68480;DHT22;55469;48.934;12.050;2022-08-11T04:06:09;24.10;39.30
68480;DHT22;55469;48.934;12.050;2022-08-11T04:09:34;24.10;39.30
68480;DHT22;55469;48.934;12.050;2022-08-11T04:15:12;24.10;39.40
68480;DHT22;55469;48.934;12.050;2022-08-11T04:32:28;24.10;39.40
68480;DHT22;55469;48.934;12.050;2022-08-11T04:47:06;24.10;39.50
68480;DHT22;55469;48.934;12.050;2022-08-11T04:50:06;24.10;39.50
68480;DHT22;55469;48.934;12.050;2022-08-11T04:53:26;24.10;39.50
68480;DHT22;55469;48.934;12.050;2022-08-11T04:56:21;24.10;39.40
68480;DHT22;55469;48.934;12.050;2022-08-11T05:06:23;24.10;39.40
68480;DHT22;55469;48.934;12.050;2022-08-11T05:09:20;24.10;39.40
68480;DHT22;55469;48.934;12.050;2022-08-11T05:14:49;24.10;39.40
68480;DHT22;55469;48.934;12.050;2022-08-11T05:20:53;24.10;39.60
68480;DHT22;55469;48.934;12.050;2022-08-11T05:23:45;24.10;39.50
68480;DHT22;55469;48.934;12.050;2022-08-11T05:26:42;24.10;39.60
68480;DHT22;55469;48.934;12.050;2022-08-11T05:29:45;24.10;39.60
68480;DHT22;55469;48.934;12.050;2022-08-11T05:32:35;24.10;39.60
68480;DHT22;55469;48.934;12.050;2022-08-11T05:35:30;24.10;39.60
68480;DHT22;55469;48.934;12.050;2022-08-11T05:38:13;24.10;39.60
68480;DHT22;55469;48.934;12.050;2022-08-11T05:41:00;24.10;39.60
68480;DHT22;55469;48.934;12.050;2022-08-11T05:43:45;24.10;39.50
68480;DHT22;55469;48.934;12.050;2022-08-11T05:46:38;24.10;39.60
68480;DHT22;55469;48.934;12.050;2022-08-11T05:49:29;24.10;39.60
68480;DHT22;55469;48.934;12.050;2022-08-11T05:52:27;24.00;40.60
68480;DHT22;55469;48.934;12.050;2022-08-11T05:55:14;24.00;39.70
68480;DHT22;55469;48.934;12.050;2022-08-11T05:58:07;24.00;39.80
68480;DHT22;55469;48.934;12.050;2022-08-11T06:00:45;23.90;39.70
68480;DHT22;55469;48.934;12.050;2022-08-11T06:03:21;23.80;39.60
68480;DHT22;55469;48.934;12.050;2022-08-11T06:05:51;23.80;39.90
68480;DHT22;55469;48.934;12.050;2022-08-11T06:08:17;23.60;40.20
68480;DHT22;55469;48.934;12.050;2022-08-11T06:11:02;23.50;40.20
68480;DHT22;55469;48.934;12.050;2022-08-11T06:13:30;23.50;40.30
68480;DHT22;55469;48.934;12.050;2022-08-11T06:15:57;23.40;40.40
68480;DHT22;55469;48.934;12.050;2022-08-11T06:18:23;23.30;40.50
68480;DHT22;55469;48.934;12.050;2022-08-11T06:20:51;23.20;40.80
68480;DHT22;55469;48.934;12.050;2022-08-11T06:23:22;23.20;40.80
68480;DHT22;55469;48.934;12.050;2022-08-11T06:25:51;23.30;40.60
68480;DHT22;55469;48.934;12.050;2022-08-11T06:28:18;23.30;40.80
68480;DHT22;55469;48.934;12.050;2022-08-11T06:30:46;23.30;40.60
68480;DHT22;55469;48.934;12.050;2022-08-11T06:33:30;23.30;40.70
68480;DHT22;55469;48.934;12.050;2022-08-11T06:36:09;23.30;40.70
68480;DHT22;55469;48.934;12.050;2022-08-11T06:41:48;23.20;40.70
68480;DHT22;55469;48.934;12.050;2022-08-11T06:46:53;23.00;40.90
68480;DHT22;55469;48.934;12.050;2022-08-11T06:49:31;23.10;42.00
68480;DHT22;55469;48.934;12.050;2022-08-11T06:52:17;23.10;41.00
68480;DHT22;55469;48.934;12.050;2022-08-11T06:54:49;23.00;41.00
68480;DHT22;55469;48.934;12.050;2022-08-11T06:57:33;23.10;40.90
68480;DHT22;55469;48.934;12.050;2022-08-11T07:00:19;23.10;40.90
68480;DHT22;55469;48.934;12.050;2022-08-11T07:03:03;23.20;40.90
68480;DHT22;55469;48.934;12.050;2022-08-11T07:05:50;23.20;40.90
68480;DHT22;55469;48.934;12.050;2022-08-11T07:15:09;23.10;40.90
68480;DHT22;55469;48.934;12.050;2022-08-11T07:17:54;23.10;40.80
68480;DHT22;55469;48.934;12.050;2022-08-11T07:20:43;23.10;40.50
68480;DHT22;55469;48.934;12.050;2022-08-11T07:23:30;23.10;40.30
68480;DHT22;55469;48.934;12.050;2022-08-11T07:26:17;23.10;39.90
68480;DHT22;55469;48.934;12.050;2022-08-11T07:29:03;23.20;39.80
68480;DHT22;55469;48.934;12.050;2022-08-11T07:31:41;23.20;39.70
68480;DHT22;55469;48.934;12.050;2022-08-11T07:36:57;23.20;39.30
68480;DHT22;55469;48.934;12.050;2022-08-11T07:39:31;23.20;38.90
68480;DHT22;55469;48.934;12.050;2022-08-11T07:41:58;23.30;38.30
68480;DHT22;55469;48.934;12.050;2022-08-11T07:44:30;23.30;37.90
68480;DHT22;55469;48.934;12.050;2022-08-11T07:46:56;23.30;37.50
68480;DHT22;55469;48.934;12.050;2022-08-11T07:49:44;23.30;37.30
68480;DHT22;55469;48.934;12.050;2022-08-11T07:52:33;23.30;37.00
68480;DHT22;55469;48.934;12.050;2022-08-11T07:55:17;23.30;36.80
68480;DHT22;55469;48.934;12.050;2022-08-11T07:57:46;23.40;37.00
68480;DHT22;55469;48.934;12.050;2022-08-11T08:00:57;23.40;36.90
68480;DHT22;55469;48.934;12.050;2022-08-11T08:03:43;23.50;37.00
68480;DHT22;55469;48.934;12.050;2022-08-11T08:06:29;23.50;37.00
68480;DHT22;55469;48.934;12.050;2022-08-11T08:09:18;23.50;37.00
68480;DHT22;55469;48.934;12.050;2022-08-11T08:12:04;23.50;37.00
68480;DHT22;55469;48.934;12.050;2022-08-11T08:14:53;23.50;36.90
68480;DHT22;55469;48.934;12.050;2022-08-11T08:17:41;23.50;36.80
68480;DHT22;55469;48.934;12.050;2022-08-11T08:20:45;23.60;36.90
68480;DHT22;55469;48.934;12.050;2022-08-11T08:23:14;23.60;37.00
68480;DHT22;55469;48.934;12.050;2022-08-11T08:25:42;23.60;36.90
68480;DHT22;55469;48.934;12.050;2022-08-11T08:28:11;23.70;37.00
68480;DHT22;55469;48.934;12.050;2022-08-11T08:30:40;23.80;37.00
68480;DHT22;55469;48.934;12.050;2022-08-11T08:34:57;23.90;37.00
68480;DHT22;55469;48.934;12.050;2022-08-11T08:37:25;24.10;35.90
68480;DHT22;55469;48.934;12.050;2022-08-11T08:39:52;24.10;35.70
68480;DHT22;55469;48.934;12.050;2022-08-11T08:42:25;24.20;35.60
68480;DHT22;55469;48.934;12.050;2022-08-11T08:45:05;24.30;35.30
68480;DHT22;55469;48.934;12.050;2022-08-11T08:47:46;24.40;35.00
68480;DHT22;55469;48.934;12.050;2022-08-11T08:50:20;24.40;35.00
68480;DHT22;55469;48.934;12.050;2022-08-11T08:52:55;24.40;34.80
68480;DHT22;55469;48.934;12.050;2022-08-11T08:55:26;24.50;34.80
68480;DHT22;55469;48.934;12.050;2022-08-11T08:57:53;24.50;34.80
68480;DHT22;55469;48.934;12.050;2022-08-11T09:00:21;24.50;34.70
68480;DHT22;55469;48.934;12.050;2022-08-11T09:02:47;24.60;34.90
68480;DHT22;55469;48.934;12.050;2022-08-11T09:05:16;24.60;34.80
68480;DHT22;55469;48.934;12.050;2022-08-11T09:07:43;24.70;34.70
68480;DHT22;55469;48.934;12.050;2022-08-11T09:10:12;24.70;34.50
68480;DHT22;55469;48.934;12.050;2022-08-11T09:12:41;24.80;34.60
68480;DHT22;55469;48.934;12.050;2022-08-11T09:15:08;24.80;34.70
68480;DHT22;55469;48.934;12.050;2022-08-11T09:17:40;24.90;34.80
68480;DHT22;55469;48.934;12.050;2022-08-11T09:22:40;25.00;35.20
68480;DHT22;55469;48.934;12.050;2022-08-11T09:25:27;25.00;35.30
68480;DHT22;55469;48.934;12.050;2022-08-11T09:28:15;25.10;35.50
68480;DHT22;55469;48.934;12.050;2022-08-11T09:30:43;25.10;35.80
68480;DHT22;55469;48.934;12.050;2022-08-11T09:33:13;25.20;35.70
68480;DHT22;55469;48.934;12.050;2022-08-11T09:35:41;25.20;35.10
68480;DHT22;55469;48.934;12.050;2022-08-11T09:38:10;25.10;34.80
68480;DHT22;55469;48.934;12.050;2022-08-11T09:40:58;25.20;34.80
68480;DHT22;55469;48.934;12.050;2022-08-11T09:43:25;25.20;34.60
68480;DHT22;55469;48.934;12.050;2022-08-11T09:46:11;25.20;34.60
68480;DHT22;55469;48.934;12.050;2022-08-11T09:48:41;25.30;34.50
68480;DHT22;55469;48.934;12.050;2022-08-11T09:51:09;25.30;34.30
68480;DHT22;55469;48.934;12.050;2022-08-11T09:53:41;25.30;34.40
68480;DHT22;55469;48.934;12.050;2022-08-11T09:56:27;25.40;34.50
68480;DHT22;55469;48.934;12.050;2022-08-11T09:59:12;25.40;34.50
68480;DHT22;55469;48.934;12.050;2022-08-11T10:01:43;25.40;34.30
68480;DHT22;55469;48.934;12.050;2022-08-11T10:04:26;25.40;34.00
68480;DHT22;55469;48.934;12.050;2022-08-11T10:07:01;25.40;33.90
68480;DHT22;55469;48.934;12.050;2022-08-11T10:09:55;25.50;34.20
68480;DHT22;55469;48.934;12.050;2022-08-11T10:12:25;25.50;33.90
68480;DHT22;55469;48.934;12.050;2022-08-11T10:15:03;25.50;33.90
68480;DHT22;55469;48.934;12.050;2022-08-11T10:17:54;25.50;34.10
68480;DHT22;55469;48.934;12.050;2022-08-11T10:20:42;25.60;34.30
68480;DHT22;55469;48.934;12.050;2022-08-11T10:23:11;25.70;34.80
68480;DHT22;55469;48.934;12.050;2022-08-11T10:25:56;25.70;34.50
68480;DHT22;55469;48.934;12.050;2022-08-11T10:28:41;25.70;34.10
68480;DHT22;55469;48.934;12.050;2022-08-11T10:31:08;25.70;33.90
68480;DHT22;55469;48.934;12.050;2022-08-11T10:33:53;25.70;33.60
68480;DHT22;55469;48.934;12.050;2022-08-11T10:36:30;25.80;33.70
68480;DHT22;55469;48.934;12.050;2022-08-11T10:38:59;25.80;33.70
68480;DHT22;55469;48.934;12.050;2022-08-11T10:41:27;25.90;33.90
68480;DHT22;55469;48.934;12.050;2022-08-11T10:44:12;25.90;34.60
68480;DHT22;55469;48.934;12.050;2022-08-11T10:46:38;26.00;34.50
68480;DHT22;55469;48.934;12.050;2022-08-11T10:49:25;26.10;34.20
68480;DHT22;55469;48.934;12.050;2022-08-11T10:51:54;26.10;34.50
68480;DHT22;55469;48.934;12.050;2022-08-11T10:54:40;26.20;34.30
68480;DHT22;55469;48.934;12.050;2022-08-11T10:57:29;26.30;33.60
68480;DHT22;55469;48.934;12.050;2022-08-11T11:00:15;26.30;33.70
68480;DHT22;55469;48.934;12.050;2022-08-11T11:02:42;26.30;33.50
68480;DHT22;55469;48.934;12.050;2022-08-11T11:07:55;26.60;33.80
68480;DHT22;55469;48.934;12.050;2022-08-11T11:10:25;26.50;33.30
68480;DHT22;55469;48.934;12.050;2022-08-11T11:12:55;26.60;33.60
68480;DHT22;55469;48.934;12.050;2022-08-11T11:15:45;26.60;33.90
68480;DHT22;55469;48.934;12.050;2022-08-11T11:18:33;26.70;33.10
68480;DHT22;55469;48.934;12.050;2022-08-11T11:21:09;26.70;32.60
68480;DHT22;55469;48.934;12.050;2022-08-11T11:32:28;26.70;32.50
68480;DHT22;55469;48.934;12.050;2022-08-11T11:35:29;26.70;32.70
68480;DHT22;55469;48.934;12.050;2022-08-11T11:38:00;26.70;32.40
68480;DHT22;55469;48.934;12.050;2022-08-11T11:40:27;26.70;33.30
68480;DHT22;55469;48.934;12.050;2022-08-11T11:42:55;26.70;32.00
68480;DHT22;55469;48.934;12.050;2022-08-11T11:45:23;26.70;31.80
68480;DHT22;55469;48.934;12.050;2022-08-11T11:47:51;26.80;31.80
68480;DHT22;55469;48.934;12.050;2022-08-11T11:50:33;26.70;31.80
68480;DHT22;55469;48.934;12.050;2022-08-11T11:53:04;26.70;31.40
68480;DHT22;55469;48.934;12.050;2022-08-11T11:55:31;26.70;31.50
68480;DHT22;55469;48.934;12.050;2022-08-11T11:58:00;26.70;31.70
68480;DHT22;55469;48.934;12.050;2022-08-11T12:00:46;26.70;31.80
68480;DHT22;55469;48.934;12.050;2022-08-11T12:03:32;26.70;31.90
68480;DHT22;55469;48.934;12.050;2022-08-11T12:05:59;26.70;32.00
68480;DHT22;55469;48.934;12.050;2022-08-11T12:08:25;26.70;31.50
68480;DHT22;55469;48.934;12.050;2022-08-11T12:10:58;26.70;30.90
68480;DHT22;55469;48.934;12.050;2022-08-11T12:13:46;26.70;31.00
68480;DHT22;55469;48.934;12.050;2022-08-11T12:16:16;26.70;30.90
68480;DHT22;55469;48.934;12.050;2022-08-11T12:18:45;26.70;31.60
68480;DHT22;55469;48.934;12.050;2022-08-11T12:21:14;26.70;31.00
68480;DHT22;55469;48.934;12.050;2022-08-11T12:23:42;26.70;31.10
68480;DHT22;55469;48.934;12.050;2022-08-11T12:26:29;26.70;30.90
68480;DHT22;55469;48.934;12.050;2022-08-11T12:29:16;26.70;31.00
68480;DHT22;55469;48.934;12.050;2022-08-11T12:31:44;26.70;31.00
68480;DHT22;55469;48.934;12.050;2022-08-11T12:34:13;26.80;30.70
68480;DHT22;55469;48.934;12.050;2022-08-11T12:36:44;26.80;30.60
68480;DHT22;55469;48.934;12.050;2022-08-11T12:39:19;26.90;30.90
68480;DHT22;55469;48.934;12.050;2022-08-11T12:42:09;26.90;30.80
68480;DHT22;55469;48.934;12.050;2022-08-11T12:44:56;26.90;30.50
68480;DHT22;55469;48.934;12.050;2022-08-11T12:47:47;26.90;30.80
68480;DHT22;55469;48.934;12.050;2022-08-11T12:50:33;26.90;30.80
68480;DHT22;55469;48.934;12.050;2022-08-11T12:53:23;26.90;30.20
68480;DHT22;55469;48.934;12.050;2022-08-11T12:55:56;26.90;30.30
68480;DHT22;55469;48.934;12.050;2022-08-11T12:58:42;26.90;30.50
68480;DHT22;55469;48.934;12.050;2022-08-11T13:01:10;26.90;30.30
68480;DHT22;55469;48.934;12.050;2022-08-11T13:03:54;27.00;30.30
68480;DHT22;55469;48.934;12.050;2022-08-11T13:06:40;26.90;30.50
68480;DHT22;55469;48.934;12.050;2022-08-11T13:09:08;26.90;30.90
68480;DHT22;55469;48.934;12.050;2022-08-11T13:11:35;26.90;30.80
68480;DHT22;55469;48.934;12.050;2022-08-11T13:14:20;26.90;31.00
68480;DHT22;55469;48.934;12.050;2022-08-11T13:16:47;26.90;31.00
68480;DHT22;55469;48.934;12.050;2022-08-11T13:19:32;27.00;31.00
68480;DHT22;55469;48.934;12.050;2022-08-11T13:21:59;27.00;30.50
68480;DHT22;55469;48.934;12.050;2022-08-11T13:24:27;27.00;30.40
68480;DHT22;55469;48.934;12.050;2022-08-11T13:26:53;27.00;30.70
68480;DHT22;55469;48.934;12.050;2022-08-11T13:29:24;27.00;31.60
68480;DHT22;55469;48.934;12.050;2022-08-11T13:31:53;27.00;30.80
68480;DHT22;55469;48.934;12.050;2022-08-11T13:34:23;27.00;30.90
68480;DHT22;55469;48.934;12.050;2022-08-11T13:36:52;27.00;30.90
68480;DHT22;55469;48.934;12.050;2022-08-11T13:39:24;27.00;31.00
68480;DHT22;55469;48.934;12.050;2022-08-11T13:41:56;27.00;30.90
68480;DHT22;55469;48.934;12.050;2022-08-11T13:44:25;27.00;30.90
68480;DHT22;55469;48.934;12.050;2022-08-11T13:46:55;27.00;30.90
68480;DHT22;55469;48.934;12.050;2022-08-11T13:49:27;27.00;30.80
68480;DHT22;55469;48.934;12.050;2022-08-11T13:51:55;27.10;30.70
68480;DHT22;55469;48.934;12.050;2022-08-11T13:54:24;27.10;30.70
68480;DHT22;55469;48.934;12.050;2022-08-11T13:56:54;27.10;30.40
68480;DHT22;55469;48.934;12.050;2022-08-11T13:59:22;27.10;30.50
68480;DHT22;55469;48.934;12.050;2022-08-11T14:01:52;27.10;30.40
68480;DHT22;55469;48.934;12.050;2022-08-11T14:05:00;27.10;30.40
68480;DHT22;55469;48.934;12.050;2022-08-11T14:07:23;27.10;30.70
68480;DHT22;55469;48.934;12.050;2022-08-11T14:09:57;27.10;30.70
68480;DHT22;55469;48.934;12.050;2022-08-11T14:12:26;27.10;30.70
68480;DHT22;55469;48.934;12.050;2022-08-11T14:17:53;27.20;30.40
68480;DHT22;55469;48.934;12.050;2022-08-11T14:20:29;27.20;30.20
68480;DHT22;55469;48.934;12.050;2022-08-11T14:23:15;27.20;29.90
68480;DHT22;55469;48.934;12.050;2022-08-11T14:25:41;27.20;29.90
68480;DHT22;55469;48.934;12.050;2022-08-11T14:28:28;27.20;29.30
68480;DHT22;55469;48.934;12.050;2022-08-11T14:30:56;27.20;29.20
68480;DHT22;55469;48.934;12.050;2022-08-11T14:33:22;27.20;28.90
68480;DHT22;55469;48.934;12.050;2022-08-11T14:35:48;27.20;28.90
68480;DHT22;55469;48.934;12.050;2022-08-11T14:38:15;27.20;29.00
68480;DHT22;55469;48.934;12.050;2022-08-11T14:40:42;27.30;29.30
68480;DHT22;55469;48.934;12.050;2022-08-11T14:43:27;27.30;29.40
68480;DHT22;55469;48.934;12.050;2022-08-11T14:46:12;27.20;29.70
68480;DHT22;55469;48.934;12.050;2022-08-11T14:48:57;27.20;29.90
68480;DHT22;55469;48.934;12.050;2022-08-11T14:51:25;27.30;29.50
68480;DHT22;55469;48.934;12.050;2022-08-11T14:53:51;27.30;29.50
68480;DHT22;55469;48.934;12.050;2022-08-11T14:56:37;27.30;29.40
68480;DHT22;55469;48.934;12.050;2022-08-11T14:59:05;27.30;29.00
68480;DHT22;55469;48.934;12.050;2022-08-11T15:01:31;27.30;29.40
68480;DHT22;55469;48.934;12.050;2022-08-11T15:04:18;27.30;28.90
68480;DHT22;55469;48.934;12.050;2022-08-11T15:06:44;27.30;29.10
68480;DHT22;55469;48.934;12.050;2022-08-11T15:09:10;27.30;28.90
68480;DHT22;55469;48.934;12.050;2022-08-11T15:11:36;27.30;29.10
68480;DHT22;55469;48.934;12.050;2022-08-11T15:14:21;27.40;29.10
68480;DHT22;55469;48.934;12.050;2022-08-11T15:17:06;27.40;28.70
68480;DHT22;55469;48.934;12.050;2022-08-11T15:19:33;27.40;29.00
68480;DHT22;55469;48.934;12.050;2022-08-11T15:22:00;27.40;29.00
68480;DHT22;55469;48.934;12.050;2022-08-11T15:24:44;27.40;29.10
68480;DHT22;55469;48.934;12.050;2022-08-11T15:27:13;27.40;28.90
68480;DHT22;55469;48.934;12.050;2022-08-11T15:30:02;27.30;28.80
68480;DHT22;55469;48.934;12.050;2022-08-11T15:32:49;27.40;28.70
68480;DHT22;55469;48.934;12.050;2022-08-11T15:35:35;27.40;28.80
68480;DHT22;55469;48.934;12.050;2022-08-11T15:38:21;27.40;29.10
68480;DHT22;55469;48.934;12.050;2022-08-11T15:40:48;27.40;29.00
68480;DHT22;55469;48.934;12.050;2022-08-11T15:43:37;27.40;28.80
68480;DHT22;55469;48.934;12.050;2022-08-11T15:46:34;27.40;28.70
68480;DHT22;55469;48.934;12.050;2022-08-11T15:49:11;27.40;28.80
68480;DHT22;55469;48.934;12.050;2022-08-11T15:51:43;27.40;28.70
68480;DHT22;55469;48.934;12.050;2022-08-11T15:54:15;27.40;28.60
68480;DHT22;55469;48.934;12.050;2022-08-11T15:56:45;27.50;28.70
68480;DHT22;55469;48.934;12.050;2022-08-11T15:59:15;27.50;28.60
68480;DHT22;55469;48.934;12.050;2022-08-11T16:02:03;27.40;28.50
68480;DHT22;55469;48.934;12.050;2022-08-11T16:04:57;27.40;28.20
68480;DHT22;55469;48.934;12.050;2022-08-11T16:07:30;27.40;28.50
68480;DHT22;55469;48.934;12.050;2022-08-11T16:10:03;27.40;28.50
68480;DHT22;55469;48.934;12.050;2022-08-11T16:12:38;27.40;28.40
68480;DHT22;55469;48.934;12.050;2022-08-11T16:15:09;27.40;28.50
68480;DHT22;55469;48.934;12.050;2022-08-11T16:18:00;27.40;28.30
68480;DHT22;55469;48.934;12.050;2022-08-11T16:20:30;27.40;28.40
68480;DHT22;55469;48.934;12.050;2022-08-11T16:23:03;27.50;28.50
68480;DHT22;55469;48.934;12.050;2022-08-11T16:25:33;27.50;28.50
68480;DHT22;55469;48.934;12.050;2022-08-11T16:28:02;27.50;28.60
68480;DHT22;55469;48.934;12.050;2022-08-11T16:30:37;27.50;28.80
68480;DHT22;55469;48.934;12.050;2022-08-11T16:33:05;27.50;28.50
68480;DHT22;55469;48.934;12.050;2022-08-11T16:35:35;27.50;28.60
68480;DHT22;55469;48.934;12.050;2022-08-11T16:38:22;27.50;28.70
68480;DHT22;55469;48.934;12.050;2022-08-11T16:41:01;27.50;28.70
68480;DHT22;55469;48.934;12.050;2022-08-11T16:43:31;27.50;28.50
68480;DHT22;55469;48.934;12.050;2022-08-11T16:46:18;27.50;28.70
68480;DHT22;55469;48.934;12.050;2022-08-11T16:49:06;27.40;28.20
68480;DHT22;55469;48.934;12.050;2022-08-11T16:51:35;27.40;28.40
68480;DHT22;55469;48.934;12.050;2022-08-11T16:54:01;27.40;28.40
68480;DHT22;55469;48.934;12.050;2022-08-11T16:56:51;27.40;28.40
68480;DHT22;55469;48.934;12.050;2022-08-11T16:59:25;27.50;28.50
68480;DHT22;55469;48.934;12.050;2022-08-11T17:01:59;27.50;28.50
68480;DHT22;55469;48.934;12.050;2022-08-11T17:04:40;27.50;28.60
68480;DHT22;55469;48.934;12.050;2022-08-11T17:07:29;27.50;28.60
68480;DHT22;55469;48.934;12.050;2022-08-11T17:10:50;27.50;28.70
68480;DHT22;55469;48.934;12.050;2022-08-11T17:13:54;27.50;28.80
68480;DHT22;55469;48.934;12.050;2022-08-11T17:16:26;27.50;28.80
68480;DHT22;55469;48.934;12.050;2022-08-11T17:19:02;27.50;28.80
68480;DHT22;55469;48.934;12.050;2022-08-11T17:21:37;27.50;28.90
68480;DHT22;55469;48.934;12.050;2022-08-11T17:24:25;27.40;28.80
68480;DHT22;55469;48.934;12.050;2022-08-11T17:26:53;27.50;28.90
68480;DHT22;55469;48.934;12.050;2022-08-11T17:29:41;27.50;29.00
68480;DHT22;55469;48.934;12.050;2022-08-11T17:32:17;27.50;29.00
68480;DHT22;55469;48.934;12.050;2022-08-11T17:35:11;27.50;29.00
68480;DHT22;55469;48.934;12.050;2022-08-11T17:38:16;27.40;29.00
68480;DHT22;55469;48.934;12.050;2022-08-11T17:40:51;27.40;29.20
68480;DHT22;55469;48.934;12.050;2022-08-11T17:43:36;27.40;29.20
68480;DHT22;55469;48.934;12.050;2022-08-11T17:46:22;27.40;29.30
68480;DHT22;55469;48.934;12.050;2022-08-11T17:49:10;27.40;29.50
68480;DHT22;55469;48.934;12.050;2022-08-11T17:51:38;27.30;29.40
68480;DHT22;55469;48.934;12.050;2022-08-11T17:54:24;27.30;29.50
68480;DHT22;55469;48.934;12.050;2022-08-11T17:57:09;27.30;29.50
68480;DHT22;55469;48.934;12.050;2022-08-11T17:59:54;27.30;29.50
68480;DHT22;55469;48.934;12.050;2022-08-11T18:02:32;27.30;29.60
68480;DHT22;55469;48.934;12.050;2022-08-11T18:05:21;27.30;29.50
68480;DHT22;55469;48.934;12.050;2022-08-11T18:07:52;27.30;29.40
68480;DHT22;55469;48.934;12.050;2022-08-11T18:10:38;27.30;29.60
68480;DHT22;55469;48.934;12.050;2022-08-11T18:13:24;27.30;29.70
68480;DHT22;55469;48.934;12.050;2022-08-11T18:16:11;27.30;29.90
68480;DHT22;55469;48.934;12.050;2022-08-11T18:18:55;27.30;29.90
68480;DHT22;55469;48.934;12.050;2022-08-11T18:21:40;27.30;29.90
68480;DHT22;55469;48.934;12.050;2022-08-11T18:24:28;27.20;29.90
68480;DHT22;55469;48.934;12.050;2022-08-11T18:27:17;27.20;29.90
68480;DHT22;55469;48.934;12.050;2022-08-11T18:30:04;27.20;29.90
68480;DHT22;55469;48.934;12.050;2022-08-11T18:32:51;27.20;29.90
68480;DHT22;55469;48.934;12.050;2022-08-11T18:35:37;27.10;30.00
68480;DHT22;55469;48.934;12.050;2022-08-11T18:38:26;27.10;30.20
68480;DHT22;55469;48.934;12.050;2022-08-11T18:41:12;27.00;30.00
68480;DHT22;55469;48.934;12.050;2022-08-11T18:44:00;27.00;29.90
68480;DHT22;55469;48.934;12.050;2022-08-11T18:46:49;27.00;29.80
68480;DHT22;55469;48.934;12.050;2022-08-11T18:49:38;26.90;29.70
68480;DHT22;55469;48.934;12.050;2022-08-11T18:52:23;26.90;29.70
68480;DHT22;55469;48.934;12.050;2022-08-11T18:55:15;26.90;29.70
68480;DHT22;55469;48.934;12.050;2022-08-11T18:58:03;26.90;29.70
68480;DHT22;55469;48.934;12.050;2022-08-11T19:00:50;26.80;29.60
68480;DHT22;55469;48.934;12.050;2022-08-11T19:03:38;26.80;29.60
68480;DHT22;55469;48.934;12.050;2022-08-11T19:06:24;26.80;29.70
68480;DHT22;55469;48.934;12.050;2022-08-11T19:09:14;26.80;29.70
68480;DHT22;55469;48.934;12.050;2022-08-11T19:12:00;26.70;29.60
68480;DHT22;55469;48.934;12.050;2022-08-11T19:14:49;26.70;29.60
68480;DHT22;55469;48.934;12.050;2022-08-11T19:17:35;26.70;29.70
68480;DHT22;55469;48.934;12.050;2022-08-11T19:20:24;26.60;29.70
68480;DHT22;55469;48.934;12.050;2022-08-11T19:23:16;26.60;29.70
68480;DHT22;55469;48.934;12.050;2022-08-11T19:26:04;26.50;30.00
68480;DHT22;55469;48.934;12.050;2022-08-11T19:28:49;26.50;30.00
68480;DHT22;55469;48.934;12.050;2022-08-11T19:31:36;26.50;30.00
68480;DHT22;55469;48.934;12.050;2022-08-11T19:34:24;26.40;30.10
68480;DHT22;55469;48.934;12.050;2022-08-11T19:37:09;26.40;31.20
68480;DHT22;55469;48.934;12.050;2022-08-11T19:39:59;26.40;30.10